Time;durP1;ratioP1;P1;durP2;ratioP2;P2;SDS_P1;SDS_P2;PMS_P1;PMS_P2;Temp;Humidity;BMP_temperature;BMP_pressure;BME280_temperature;BME280_humidity;BME280_pressure;Samples;Min_cycle;Max_cycle;Signal;HPM_P1;HPM_P2
2022/09/01 00:01:56;;;;;;;17.33;9.60;;;13.10;99.90;;;;;;5053792;28;20444;-66
2022/09/01 00:04:25;;;;;;;18.47;9.70;;;13.00;99.90;;;;;;5054608;28;20177;-66
2022/09/01 00:06:53;;;;;;;18.27;9.00;;;13.10;99.90;;;;;;5054724;28;20185;-66
2022/09/01 00:09:21;;;;;;;20.17;9.67;;;13.00;99.90;;;;;;5055334;28;20880;-66
2022/09/01 00:11:51;;;;;;;15.50;9.00;;;13.00;99.90;;;;;;5054815;28;20456;-66
2022/09/01 00:14:22;;;;;;;16.93;10.03;;;12.90;99.90;;;;;;5055335;28;20631;-66
2022/09/01 00:16:48;;;;;;;22.60;12.27;;;12.90;99.90;;;;;;5055344;28;20409;-65
2022/09/01 00:19:14;;;;;;;24.87;12.50;;;13.00;99.90;;;;;;5055279;28;20877;-65
2022/09/01 00:21:42;;;;;;;20.30;10.70;;;13.00;99.90;;;;;;5055075;28;20588;-67
2022/09/01 00:24:09;;;;;;;28.23;14.60;;;13.00;99.90;;;;;;5055165;28;20264;-67
2022/09/01 00:26:35;;;;;;;23.17;12.70;;;13.00;99.90;;;;;;5055458;28;20766;-67
2022/09/01 00:29:02;;;;;;;27.27;14.20;;;13.10;99.90;;;;;;5055458;28;20408;-67
2022/09/01 00:31:28;;;;;;;28.13;12.70;;;13.00;99.90;;;;;;5054644;28;20509;-67
2022/09/01 00:33:54;;;;;;;22.53;12.70;;;13.00;99.90;;;;;;5054060;28;20440;-67
2022/09/01 00:36:20;;;;;;;22.70;12.70;;;13.00;99.90;;;;;;5055216;28;20872;-67
2022/09/01 00:38:46;;;;;;;25.00;12.53;;;13.00;99.90;;;;;;5054806;28;20413;-67
2022/09/01 00:41:13;;;;;;;18.30;11.03;;;13.10;99.90;;;;;;5054420;28;20417;-67
2022/09/01 00:43:39;;;;;;;20.37;12.17;;;13.10;99.90;;;;;;5054806;28;20423;-67
2022/09/01 00:46:07;;;;;;;25.47;12.50;;;13.10;99.90;;;;;;5054687;28;20417;-67
2022/09/01 00:48:33;;;;;;;23.47;12.97;;;13.10;99.90;;;;;;5054540;28;20669;-67
2022/09/01 00:51:00;;;;;;;25.40;15.83;;;13.10;99.90;;;;;;5054304;28;20452;-68
2022/09/01 00:53:26;;;;;;;21.20;12.77;;;13.10;99.90;;;;;;5054648;28;20219;-67
2022/09/01 00:55:51;;;;;;;22.73;12.13;;;13.20;99.90;;;;;;5054496;28;20761;-67
2022/09/01 00:58:17;;;;;;;28.80;13.37;;;13.20;99.90;;;;;;5054477;28;20413;-67
2022/09/01 01:00:48;;;;;;;20.30;12.00;;;13.20;99.90;;;;;;5054528;28;20253;-67
2022/09/01 01:03:14;;;;;;;21.30;12.77;;;13.10;99.90;;;;;;5053724;28;20235;-67
2022/09/01 01:05:53;;;;;;;24.23;12.63;;;13.10;99.90;;;;;;5054316;28;20904;-67
2022/09/01 01:08:36;;;;;;;24.57;11.90;;;13.10;99.90;;;;;;5054346;28;20173;-67
2022/09/01 01:11:16;;;;;;;18.77;10.83;;;13.10;99.90;;;;;;5053011;28;20448;-67
2022/09/01 01:13:54;;;;;;;27.17;11.90;;;13.10;99.90;;;;;;5054337;28;20408;-67
2022/09/01 01:16:21;;;;;;;22.60;12.33;;;13.00;99.90;;;;;;5054231;28;20408;-67
2022/09/01 01:18:47;;;;;;;25.23;14.07;;;12.90;99.90;;;;;;5054171;28;20428;-68
2022/09/01 01:24:23;;;;;;;23.83;12.13;;;12.90;99.90;;;;;;5054099;28;20180;-68
2022/09/01 01:26:50;;;;;;;27.63;12.87;;;12.90;99.90;;;;;;5054186;28;20496;-67
2022/09/01 01:29:16;;;;;;;22.30;11.07;;;13.00;99.90;;;;;;5053924;28;20417;-67
2022/09/01 01:31:42;;;;;;;20.00;11.50;;;12.90;99.90;;;;;;5053340;28;21023;-68
2022/09/01 01:34:08;;;;;;;20.83;10.27;;;12.80;99.90;;;;;;5052790;28;20531;-67
2022/09/01 01:36:36;;;;;;;25.17;11.73;;;12.80;99.90;;;;;;5053782;28;20254;-68
2022/09/01 01:39:09;;;;;;;29.90;11.53;;;12.90;99.90;;;;;;5053698;28;20983;-67
2022/09/01 01:41:39;;;;;;;19.90;9.80;;;12.90;99.90;;;;;;5053226;28;20871;-67
2022/09/01 01:44:06;;;;;;;19.53;10.43;;;12.80;99.90;;;;;;5053726;28;20412;-67
2022/09/01 01:46:33;;;;;;;19.73;10.17;;;12.90;99.90;;;;;;5053495;28;20838;-67
2022/09/01 01:49:01;;;;;;;18.77;10.70;;;12.90;99.90;;;;;;5053643;28;20424;-67
2022/09/01 01:51:29;;;;;;;25.87;11.57;;;12.90;99.90;;;;;;5053177;28;20452;-67
2022/09/01 01:53:55;;;;;;;26.60;10.27;;;12.90;99.90;;;;;;5053549;28;20416;-67
2022/09/01 01:56:26;;;;;;;24.23;11.37;;;13.00;99.90;;;;;;5053655;28;20420;-67
2022/09/01 01:58:54;;;;;;;24.17;11.90;;;13.00;99.90;;;;;;5053599;28;20245;-67
2022/09/01 02:01:24;;;;;;;24.17;13.30;;;13.00;99.90;;;;;;5053052;28;20416;-68
2022/09/01 02:03:53;;;;;;;28.13;11.33;;;13.00;99.90;;;;;;5053363;28;20450;-67
2022/09/01 02:06:20;;;;;;;33.73;13.00;;;13.10;99.90;;;;;;5053157;28;20408;-68
2022/09/01 02:08:45;;;;;;;25.53;13.57;;;13.10;99.90;;;;;;5053094;28;20412;-68
2022/09/01 02:11:16;;;;;;;21.00;11.73;;;13.10;99.90;;;;;;5052509;28;20451;-68
2022/09/01 02:13:43;;;;;;;26.93;12.40;;;13.10;99.90;;;;;;5053072;28;20234;-68
2022/09/01 02:16:11;;;;;;;44.67;14.60;;;13.10;99.90;;;;;;5053119;28;20436;-68
2022/09/01 02:18:41;;;;;;;27.93;14.73;;;13.10;99.90;;;;;;5052923;28;20400;-68
2022/09/01 02:21:10;;;;;;;26.30;12.93;;;13.10;99.90;;;;;;5052316;28;20913;-67
2022/09/01 02:23:39;;;;;;;29.80;13.10;;;13.20;99.90;;;;;;5052776;28;20408;-67
2022/09/01 02:26:10;;;;;;;32.07;14.07;;;13.10;99.90;;;;;;5052948;28;20470;-68
2022/09/01 02:28:41;;;;;;;38.10;11.90;;;13.20;99.90;;;;;;5052928;28;20778;-67
2022/09/01 02:31:09;;;;;;;71.47;11.67;;;13.20;99.90;;;;;;5052362;28;20567;-68
2022/09/01 02:33:37;;;;;;;26.40;12.03;;;13.10;99.90;;;;;;5051507;28;20485;-68
2022/09/01 02:36:12;;;;;;;22.90;12.80;;;13.00;99.90;;;;;;5052650;28;20410;-68
2022/09/01 02:38:40;;;;;;;20.23;12.27;;;13.00;99.90;;;;;;5052557;28;20888;-67
2022/09/01 02:41:06;;;;;;;19.77;11.73;;;13.00;99.90;;;;;;5052248;28;20404;-66
2022/09/01 02:43:32;;;;;;;27.50;14.13;;;12.90;99.90;;;;;;5052699;28;20421;-66
2022/09/01 02:45:59;;;;;;;21.43;13.60;;;13.00;99.90;;;;;;5052480;28;20405;-66
2022/09/01 02:48:34;;;;;;;18.97;12.70;;;13.00;99.90;;;;;;5052537;28;20182;-66
2022/09/01 02:51:01;;;;;;;26.60;13.97;;;13.00;99.90;;;;;;5051870;28;20467;-66
2022/09/01 02:53:28;;;;;;;31.10;13.27;;;12.90;99.90;;;;;;5052331;28;20538;-66
2022/09/01 02:55:57;;;;;;;25.40;13.20;;;12.90;99.90;;;;;;5052255;28;20421;-66
2022/09/01 02:58:24;;;;;;;26.03;12.80;;;12.90;99.90;;;;;;5052463;28;20511;-67
2022/09/01 03:00:55;;;;;;;21.90;11.60;;;12.90;99.90;;;;;;5052327;28;20482;-67
2022/09/01 03:03:21;;;;;;;24.90;12.27;;;12.80;99.90;;;;;;5051992;28;20920;-67
2022/09/01 03:05:54;;;;;;;18.40;12.47;;;12.80;99.90;;;;;;5052223;28;20416;-67
2022/09/01 03:08:21;;;;;;;22.50;13.50;;;12.70;99.90;;;;;;5052320;28;20416;-67
2022/09/01 03:10:47;;;;;;;28.17;12.17;;;12.70;99.90;;;;;;5052357;28;20527;-66
2022/09/01 03:13:19;;;;;;;17.47;12.20;;;12.70;99.90;;;;;;5051798;28;20858;-67
2022/09/01 03:15:45;;;;;;;18.97;11.10;;;12.60;99.90;;;;;;5052120;28;20462;-66
2022/09/01 03:18:13;;;;;;;22.90;12.07;;;12.50;99.90;;;;;;5052301;28;20404;-67
2022/09/01 03:20:42;;;;;;;18.67;11.10;;;12.50;99.90;;;;;;5052266;28;20416;-66
2022/09/01 03:23:11;;;;;;;20.43;11.93;;;12.40;99.90;;;;;;5051908;28;20404;-66
2022/09/01 03:25:37;;;;;;;23.53;11.57;;;12.40;99.90;;;;;;5052363;28;20416;-66
2022/09/01 03:28:04;;;;;;;21.00;11.00;;;12.40;99.90;;;;;;5052111;28;21106;-66
2022/09/01 03:30:32;;;;;;;20.27;11.50;;;12.40;99.90;;;;;;5052099;28;20411;-66
2022/09/01 03:32:59;;;;;;;21.07;11.90;;;12.40;99.90;;;;;;5051696;28;20431;-66
2022/09/01 03:35:28;;;;;;;19.50;10.70;;;12.40;99.90;;;;;;5056329;28;20421;-66
2022/09/01 03:37:57;;;;;;;18.00;10.70;;;12.30;99.90;;;;;;5055976;28;20823;-66
2022/09/01 03:40:26;;;;;;;19.33;11.10;;;12.30;99.90;;;;;;5055913;28;20467;-66
2022/09/01 03:42:53;;;;;;;17.93;10.17;;;12.30;99.90;;;;;;5055517;28;20408;-67
2022/09/01 03:45:19;;;;;;;23.60;10.20;;;12.30;99.90;;;;;;5055926;28;20498;-66
2022/09/01 03:47:45;;;;;;;20.20;11.90;;;12.20;99.90;;;;;;5056017;28;20989;-67
2022/09/01 03:50:20;;;;;;;24.83;10.63;;;12.20;99.90;;;;;;5054682;28;20854;-66
2022/09/01 03:52:51;;;;;;;20.83;11.63;;;12.20;99.90;;;;;;5055234;28;20503;-66
2022/09/01 03:55:22;;;;;;;19.33;10.43;;;12.20;99.90;;;;;;5055644;28;20418;-66
2022/09/01 03:57:51;;;;;;;16.43;10.17;;;12.20;99.90;;;;;;5055662;28;20442;-67
2022/09/01 04:00:22;;;;;;;14.40;9.40;;;12.10;99.90;;;;;;5055608;28;20400;-67
2022/09/01 04:02:55;;;;;;;18.23;9.87;;;12.20;99.90;;;;;;5055071;28;20507;-67
2022/09/01 04:05:23;;;;;;;19.90;9.27;;;12.10;99.90;;;;;;5055279;28;20433;-66
2022/09/01 04:07:50;;;;;;;18.43;10.23;;;12.10;99.90;;;;;;5055472;28;20392;-67
2022/09/01 04:10:17;;;;;;;18.93;9.90;;;12.00;99.90;;;;;;5055131;28;20415;-67
2022/09/01 04:12:44;;;;;;;18.13;10.37;;;12.00;99.90;;;;;;5054892;28;20404;-66
2022/09/01 04:15:11;;;;;;;16.10;11.10;;;12.00;99.90;;;;;;5055299;28;20421;-67
2022/09/01 04:20:22;;;;;;;18.50;10.30;;;12.00;99.90;;;;;;5055304;28;20408;-67
2022/09/01 04:22:51;;;;;;;22.00;11.00;;;12.00;99.90;;;;;;5054783;28;20944;-66
2022/09/01 04:25:25;;;;;;;23.67;11.47;;;12.00;99.90;;;;;;5054885;28;20769;-67
2022/09/01 04:27:54;;;;;;;19.90;11.37;;;12.00;99.90;;;;;;5055064;28;20401;-66
2022/09/01 04:30:23;;;;;;;20.50;12.60;;;12.10;99.90;;;;;;5054707;28;20420;-66
2022/09/01 04:32:55;;;;;;;21.93;11.60;;;12.10;99.90;;;;;;5053453;28;20440;-67
2022/09/01 04:35:26;;;;;;;21.40;12.37;;;12.10;99.90;;;;;;5054882;28;20409;-66
2022/09/01 04:37:52;;;;;;;23.93;11.90;;;12.20;99.90;;;;;;5054990;28;20396;-67
2022/09/01 04:40:22;;;;;;;25.93;13.30;;;12.20;99.90;;;;;;5054689;28;20412;-67
2022/09/01 04:42:48;;;;;;;18.73;10.77;;;12.30;99.90;;;;;;5054426;28;20413;-67
2022/09/01 04:45:14;;;;;;;30.20;11.60;;;12.30;99.90;;;;;;5053552;28;20495;-66
2022/09/01 04:47:41;;;;;;;23.50;12.50;;;12.40;99.90;;;;;;5054947;28;20412;-67
2022/09/01 04:50:13;;;;;;;18.97;11.27;;;12.40;99.90;;;;;;5043462;28;20425;-67
2022/09/01 04:52:40;;;;;;;15.37;8.60;;;12.50;99.90;;;;;;5034479;28;21476;-67
2022/09/01 04:55:16;;;;;;;14.77;8.87;;;12.50;99.90;;;;;;5034976;28;20413;-66
2022/09/01 04:57:46;;;;;;;16.57;9.23;;;12.50;99.90;;;;;;5051118;28;20614;-66
2022/09/01 05:00:21;;;;;;;20.27;10.27;;;12.50;99.90;;;;;;5054749;28;20443;-66
2022/09/01 05:02:50;;;;;;;16.63;9.17;;;12.50;99.90;;;;;;5054367;28;20412;-66
2022/09/01 05:05:17;;;;;;;17.13;9.67;;;12.60;99.90;;;;;;5054332;28;20887;-66
2022/09/01 05:07:42;;;;;;;17.83;10.70;;;12.60;99.90;;;;;;5054368;28;20409;-66
2022/09/01 05:10:08;;;;;;;19.17;9.77;;;12.70;99.90;;;;;;5054354;28;20855;-66
2022/09/01 05:12:34;;;;;;;16.27;9.40;;;12.70;99.90;;;;;;5053780;28;20206;-66
2022/09/01 05:15:05;;;;;;;15.90;9.00;;;12.60;99.90;;;;;;5054541;28;20211;-66
2022/09/01 05:17:32;;;;;;;15.33;8.97;;;12.60;99.90;;;;;;5054123;28;20436;-67
2022/09/01 05:19:58;;;;;;;14.40;9.53;;;12.60;99.90;;;;;;5054118;28;20412;-66
2022/09/01 05:22:24;;;;;;;14.30;7.27;;;12.60;99.90;;;;;;5053578;28;20919;-66
2022/09/01 05:24:50;;;;;;;18.73;10.00;;;12.60;99.90;;;;;;5054146;28;20412;-66
2022/09/01 05:27:17;;;;;;;13.57;9.30;;;12.60;99.90;;;;;;5054238;28;20869;-66
2022/09/01 05:29:45;;;;;;;13.70;8.47;;;12.50;99.90;;;;;;5054088;28;20185;-66
2022/09/01 05:32:11;;;;;;;19.97;9.70;;;12.60;99.90;;;;;;5051984;28;20498;-66
2022/09/01 05:34:38;;;;;;;22.40;10.63;;;12.60;99.90;;;;;;5054059;28;20459;-66
2022/09/01 05:37:07;;;;;;;20.83;10.70;;;12.60;99.90;;;;;;5053874;28;20249;-66
2022/09/01 05:39:35;;;;;;;21.67;11.50;;;12.60;99.90;;;;;;5053764;28;20940;-66
2022/09/01 05:42:03;;;;;;;16.70;9.27;;;12.70;99.90;;;;;;5053053;28;20416;-66
2022/09/01 05:44:29;;;;;;;13.30;9.27;;;12.70;99.90;;;;;;5053587;28;20427;-66
2022/09/01 05:46:58;;;;;;;18.07;10.30;;;12.70;99.90;;;;;;5053650;28;20412;-66
2022/09/01 05:49:25;;;;;;;21.83;11.47;;;12.70;99.90;;;;;;5053694;28;20421;-66
2022/09/01 05:51:57;;;;;;;17.70;10.70;;;12.80;99.90;;;;;;5052948;28;20455;-66
2022/09/01 05:54:26;;;;;;;15.20;9.43;;;12.90;99.90;;;;;;5053442;28;20432;-67
2022/09/01 05:56:57;;;;;;;15.87;9.33;;;12.90;99.90;;;;;;5052627;28;20915;-66
2022/09/01 05:59:23;;;;;;;15.80;9.33;;;13.00;99.90;;;;;;5053383;28;20408;-65
2022/09/01 06:01:49;;;;;;;19.23;11.00;;;13.00;99.90;;;;;;5052565;28;20412;-66
2022/09/01 06:04:15;;;;;;;14.27;9.63;;;13.00;99.90;;;;;;5053320;28;20429;-66
2022/09/01 06:06:45;;;;;;;19.23;10.30;;;13.10;99.90;;;;;;5053066;28;20244;-65
2022/09/01 06:09:12;;;;;;;22.13;10.03;;;13.10;99.90;;;;;;5053294;28;20495;-65
2022/09/01 06:11:41;;;;;;;15.00;9.63;;;13.10;99.90;;;;;;5052334;28;20459;-66
2022/09/01 06:14:10;;;;;;;17.03;9.97;;;13.20;99.90;;;;;;5053247;28;20558;-65
2022/09/01 06:16:36;;;;;;;18.77;11.33;;;13.20;99.90;;;;;;5052959;28;20413;-66
2022/09/01 06:19:03;;;;;;;18.13;10.80;;;13.30;99.90;;;;;;5052951;28;20444;-66
2022/09/01 06:21:30;;;;;;;21.53;11.23;;;13.40;99.90;;;;;;5052628;28;20873;-66
2022/09/01 06:23:57;;;;;;;22.20;12.80;;;13.50;99.90;;;;;;5053116;28;20424;-66
2022/09/01 06:26:28;;;;;;;22.60;12.93;;;13.60;99.90;;;;;;5053078;28;20419;-65
2022/09/01 06:28:57;;;;;;;22.37;12.67;;;13.70;99.90;;;;;;5053132;28;20416;-65
2022/09/01 06:31:32;;;;;;;26.50;14.87;;;13.90;99.90;;;;;;5052462;28;20831;-66
2022/09/01 06:34:01;;;;;;;25.23;12.13;;;14.00;99.90;;;;;;5051695;28;20447;-66
2022/09/01 06:36:27;;;;;;;23.77;14.07;;;14.20;99.90;;;;;;5052861;28;20440;-66
2022/09/01 06:38:54;;;;;;;24.70;13.60;;;14.30;99.90;;;;;;5052849;28;20417;-66
2022/09/01 06:41:22;;;;;;;25.40;14.27;;;14.40;99.90;;;;;;5052367;28;20422;-66
2022/09/01 06:43:52;;;;;;;23.90;14.67;;;14.40;99.90;;;;;;5052458;28;20825;-66
2022/09/01 06:46:19;;;;;;;29.43;12.53;;;14.60;99.90;;;;;;5052579;28;20424;-66
2022/09/01 06:48:46;;;;;;;22.80;13.43;;;14.70;99.90;;;;;;5052207;28;20523;-66
2022/09/01 06:51:14;;;;;;;22.40;12.00;;;14.70;99.90;;;;;;5052047;28;20478;-65
2022/09/01 06:53:42;;;;;;;19.70;12.43;;;15.00;99.90;;;;;;5052399;28;20458;-66
2022/09/01 06:56:11;;;;;;;24.10;12.60;;;15.10;99.90;;;;;;5052216;28;20447;-66
2022/09/01 06:58:40;;;;;;;21.33;12.30;;;15.30;99.90;;;;;;5052244;28;20416;-65
2022/09/01 07:01:14;;;;;;;19.73;11.13;;;15.40;99.90;;;;;;5051808;28;20767;-66
2022/09/01 07:03:46;;;;;;;21.30;11.20;;;15.60;99.90;;;;;;5052173;28;20404;-66
2022/09/01 07:06:13;;;;;;;17.00;9.70;;;15.60;99.90;;;;;;5052265;28;20461;-66
2022/09/01 07:08:40;;;;;;;22.17;11.17;;;15.60;99.90;;;;;;5051404;28;20416;-66
2022/09/01 07:11:08;;;;;;;16.77;10.03;;;15.60;99.90;;;;;;5051706;28;20483;-66
2022/09/01 07:13:35;;;;;;;15.40;8.97;;;15.60;99.90;;;;;;5051971;28;20412;-66
2022/09/01 07:16:05;;;;;;;17.10;9.83;;;15.80;99.90;;;;;;5052147;28;20417;-66
2022/09/01 07:18:31;;;;;;;18.70;9.20;;;16.40;99.90;;;;;;5052141;28;20423;-66
2022/09/01 07:20:58;;;;;;;24.53;9.80;;;17.10;99.90;;;;;;5051921;28;20885;-66
2022/09/01 07:23:24;;;;;;;16.30;9.27;;;17.40;99.90;;;;;;5031774;28;20437;-66
2022/09/01 07:25:54;;;;;;;13.10;7.70;;;17.50;99.90;;;;;;5032062;28;20758;-66
2022/09/01 07:28:22;;;;;;;19.07;9.33;;;18.30;99.90;;;;;;5031784;28;20828;-66
2022/09/01 07:30:52;;;;;;;16.63;6.30;;;19.40;99.90;;;;;;5031985;28;20603;-66
2022/09/01 07:33:22;;;;;;;11.70;6.67;;;19.70;99.90;;;;;;5030691;28;20440;-66
2022/09/01 07:35:51;;;;;;;13.07;6.77;;;19.40;99.90;;;;;;5032024;28;20792;-66
2022/09/01 07:38:18;;;;;;;11.93;6.93;;;18.80;99.90;;;;;;5031915;28;20917;-66
2022/09/01 07:40:45;;;;;;;12.67;7.20;;;18.30;99.90;;;;;;5031937;28;20513;-66
2022/09/01 07:43:21;;;;;;;18.53;7.07;;;17.90;99.90;;;;;;5031476;28;20417;-66
2022/09/01 07:45:49;;;;;;;14.00;7.80;;;17.50;99.90;;;;;;5032295;28;20920;-66
2022/09/01 07:48:19;;;;;;;11.90;6.90;;;17.40;99.90;;;;;;5031927;28;20441;-66
2022/09/01 07:50:47;;;;;;;12.23;6.37;;;17.30;99.90;;;;;;5048535;28;20456;-65
2022/09/01 07:53:21;;;;;;;19.00;6.60;;;17.30;99.90;;;;;;5051583;28;20413;-66
2022/09/01 07:55:50;;;;;;;14.63;7.30;;;17.20;99.90;;;;;;5052178;28;20496;-66
2022/09/01 07:58:17;;;;;;;14.83;7.13;;;17.20;99.90;;;;;;5051879;28;20449;-66
2022/09/01 08:00:44;;;;;;;12.97;7.30;;;17.10;99.90;;;;;;5052176;28;20412;-66
2022/09/01 08:03:10;;;;;;;15.70;6.57;;;17.10;99.90;;;;;;5051362;28;20784;-65
2022/09/01 08:05:36;;;;;;;13.23;7.30;;;17.20;99.90;;;;;;5051806;28;20404;-66
2022/09/01 08:08:01;;;;;;;16.00;7.03;;;17.20;99.90;;;;;;5051705;28;20228;-66
2022/09/01 08:10:27;;;;;;;16.13;7.70;;;17.20;99.90;;;;;;5051829;28;20190;-66
2022/09/01 08:12:53;;;;;;;12.77;6.50;;;17.40;99.90;;;;;;5051118;28;20260;-66
2022/09/01 08:15:19;;;;;;;13.70;7.37;;;17.50;99.90;;;;;;5051612;28;20495;-66
2022/09/01 08:17:45;;;;;;;12.57;6.87;;;17.70;99.90;;;;;;5051336;28;20204;-66
2022/09/01 08:20:11;;;;;;;9.53;5.23;;;18.10;99.90;;;;;;5054152;28;20707;-67
2022/09/01 08:22:37;;;;;;;9.93;5.33;;;18.50;99.90;;;;;;5054900;28;20566;-66
2022/09/01 08:25:08;;;;;;;8.67;5.07;;;18.70;99.90;;;;;;5055422;28;20420;-66
2022/09/01 08:27:37;;;;;;;10.80;5.87;;;18.90;99.90;;;;;;5055085;28;20182;-66
2022/09/01 08:30:06;;;;;;;10.03;4.93;;;18.80;99.90;;;;;;5054900;28;20422;-67
2022/09/01 08:32:32;;;;;;;7.27;4.20;;;19.30;99.90;;;;;;5053349;28;20467;-66
2022/09/01 08:34:58;;;;;;;10.17;5.20;;;19.20;99.90;;;;;;5055045;28;20419;-67
2022/09/01 08:37:24;;;;;;;12.20;5.20;;;19.40;99.90;;;;;;5055083;28;20420;-67
2022/09/01 08:39:51;;;;;;;11.43;4.20;;;19.30;99.90;;;;;;5055022;28;20166;-67
2022/09/01 08:42:39;;;;;;;18.87;6.17;;;19.40;99.90;;;;;;5054278;28;20416;-66
2022/09/01 08:45:20;;;;;;;8.90;5.63;;;19.30;99.90;;;;;;5054658;28;20495;-66
2022/09/01 08:47:46;;;;;;;11.57;4.97;;;18.90;99.90;;;;;;5054624;28;20434;-66
2022/09/01 08:50:13;;;;;;;7.20;4.60;;;18.70;99.90;;;;;;5054784;28;20416;-67
2022/09/01 08:52:49;;;;;;;15.03;4.73;;;19.00;99.90;;;;;;5054028;28;20460;-67
2022/09/01 08:55:26;;;;;;;9.30;5.03;;;19.80;99.90;;;;;;5054850;28;20455;-66
2022/09/01 08:57:54;;;;;;;11.13;5.30;;;19.90;99.90;;;;;;5054563;28;20422;-67
2022/09/01 09:00:24;;;;;;;11.07;4.53;;;19.90;99.90;;;;;;5054463;28;20412;-67
2022/09/01 09:03:13;;;;;;;14.00;5.30;;;19.50;99.90;;;;;;5053804;28;20507;-67
2022/09/01 09:05:50;;;;;;;11.03;4.80;;;19.10;99.90;;;;;;5054371;28;20497;-66
2022/09/01 09:08:42;;;;;;;10.00;4.90;;;19.10;99.90;;;;;;5054335;28;20518;-66
2022/09/01 09:11:28;;;;;;;6.80;4.17;;;19.10;99.90;;;;;;5053555;28;20495;-67
2022/09/01 09:14:18;;;;;;;9.63;5.70;;;19.10;99.90;;;;;;5050196;28;20620;-67
2022/09/01 09:16:48;;;;;;;8.90;5.63;;;19.10;99.90;;;;;;5054203;28;20773;-66
2022/09/01 09:19:28;;;;;;;9.00;5.00;;;19.00;99.90;;;;;;5054410;28;20416;-67
2022/09/01 09:21:56;;;;;;;9.50;4.90;;;19.50;99.90;;;;;;5053963;28;20438;-67
2022/09/01 09:24:54;;;;;;;6.67;3.67;;;19.70;99.90;;;;;;5054268;28;20481;-66
2022/09/01 09:27:28;;;;;;;8.90;4.00;;;20.20;99.90;;;;;;5053880;28;20944;-67
2022/09/01 09:29:58;;;;;;;7.77;4.30;;;20.40;99.90;;;;;;5054153;28;20507;-67
2022/09/01 09:32:43;;;;;;;9.20;4.53;;;20.00;99.90;;;;;;5051724;28;20597;-67
2022/09/01 09:35:23;;;;;;;7.33;4.40;;;19.80;99.90;;;;;;5054362;28;21097;-67
2022/09/01 09:37:49;;;;;;;7.30;4.47;;;19.80;99.90;;;;;;5054271;28;20405;-67
2022/09/01 09:40:19;;;;;;;8.43;4.80;;;19.80;99.90;;;;;;5053742;28;20411;-66
2022/09/01 09:42:53;;;;;;;8.13;4.87;;;19.80;99.90;;;;;;5053676;28;20173;-67
2022/09/01 09:45:33;;;;;;;7.37;4.00;;;19.70;99.90;;;;;;5053309;28;20455;-66
2022/09/01 09:48:03;;;;;;;5.53;3.07;;;19.90;99.90;;;;;;5054002;28;20892;-66
2022/09/01 09:50:36;;;;;;;10.70;4.20;;;19.80;99.90;;;;;;5038841;28;20425;-67
2022/09/01 09:53:26;;;;;;;6.47;3.57;;;19.90;99.90;;;;;;5033243;28;20413;-67
2022/09/01 09:56:03;;;;;;;5.73;3.07;;;20.00;99.90;;;;;;5034697;28;20432;-66
2022/09/01 09:58:41;;;;;;;7.10;3.23;;;20.20;99.90;;;;;;5053525;28;20408;-66
2022/09/01 10:01:22;;;;;;;5.70;3.13;;;20.30;99.90;;;;;;5052879;28;20412;-67
2022/09/01 10:03:59;;;;;;;6.87;4.10;;;20.30;99.90;;;;;;5053258;28;20430;-66
2022/09/01 10:06:37;;;;;;;10.10;2.80;;;20.30;99.90;;;;;;5053376;28;20824;-67
2022/09/01 10:09:08;;;;;;;6.87;3.00;;;20.40;99.90;;;;;;5053309;28;20439;-67
2022/09/01 10:11:43;;;;;;;3.80;2.10;;;20.30;99.90;;;;;;5052759;28;20470;-67
2022/09/01 10:14:41;;;;;;;5.00;2.97;;;20.30;99.90;;;;;;5053114;28;20427;-67
2022/09/01 10:17:22;;;;;;;5.70;3.17;;;20.10;99.90;;;;;;5053192;28;20416;-67
2022/09/01 10:20:06;;;;;;;4.33;2.73;;;20.10;99.90;;;;;;5052896;28;20413;-67
2022/09/01 10:22:35;;;;;;;5.57;3.23;;;20.20;99.90;;;;;;5052627;28;20408;-67
2022/09/01 10:25:02;;;;;;;5.87;2.63;;;20.40;99.90;;;;;;5053041;28;20507;-67
2022/09/01 10:27:34;;;;;;;4.43;2.77;;;20.40;99.90;;;;;;5052954;28;20408;-68
2022/09/01 10:30:00;;;;;;;5.60;2.83;;;20.40;99.90;;;;;;5052873;28;20417;-68
2022/09/01 10:32:30;;;;;;;4.07;2.27;;;20.30;99.90;;;;;;5051482;28;20472;-68
2022/09/01 10:34:57;;;;;;;4.27;2.80;;;20.40;99.90;;;;;;5052648;28;20185;-68
2022/09/01 10:37:23;;;;;;;6.23;2.80;;;20.40;99.90;;;;;;5052794;28;20412;-68
2022/09/01 10:40:10;;;;;;;5.30;2.70;;;20.60;99.90;;;;;;5052654;28;20424;-68
2022/09/01 10:42:36;;;;;;;2.57;1.83;;;20.90;99.90;;;;;;5052341;28;20405;-68
2022/09/01 10:45:03;;;;;;;5.33;2.20;;;20.80;99.70;;;;;;5052519;28;20412;-69
2022/09/01 10:47:32;;;;;;;4.53;2.37;;;20.90;99.50;;;;;;5051890;28;20408;-67
2022/09/01 10:49:59;;;;;;;11.00;2.63;;;21.20;99.00;;;;;;5052536;28;20690;-68
2022/09/01 10:52:40;;;;;;;3.90;2.40;;;21.50;98.20;;;;;;5052092;28;20956;-67
2022/09/01 10:55:18;;;;;;;4.87;3.00;;;21.50;97.90;;;;;;5052495;28;20408;-68
2022/09/01 10:58:11;;;;;;;2.33;1.53;;;21.30;98.60;;;;;;5052760;28;20745;-68
2022/09/01 11:00:37;;;;;;;3.77;2.00;;;21.40;97.70;;;;;;5052682;28;20415;-67
2022/09/01 11:03:11;;;;;;;5.23;2.60;;;21.10;98.70;;;;;;5051967;28;20412;-67
2022/09/01 11:05:52;;;;;;;3.90;2.10;;;21.40;97.70;;;;;;5052645;28;20173;-67
2022/09/01 11:08:22;;;;;;;4.40;2.37;;;21.30;97.80;;;;;;5052379;28;20855;-67
2022/09/01 11:11:14;;;;;;;5.37;2.47;;;21.10;97.40;;;;;;5051992;28;20913;-68
2022/09/01 11:13:48;;;;;;;4.63;2.37;;;20.90;97.20;;;;;;5051498;28;20431;-68
2022/09/01 11:16:28;;;;;;;4.40;2.70;;;20.90;97.50;;;;;;5052362;28;20844;-67
2022/09/01 11:19:14;;;;;;;3.53;1.83;;;20.80;97.80;;;;;;5052208;28;20403;-68
2022/09/01 11:21:39;;;;;;;5.23;2.50;;;20.80;98.50;;;;;;5051775;28;20507;-68
2022/09/01 11:24:40;;;;;;;5.83;2.53;;;20.80;98.60;;;;;;5052118;28;20503;-68
2022/09/01 11:27:10;;;;;;;4.87;1.73;;;21.10;98.20;;;;;;5052231;28;20180;-69
2022/09/01 11:29:56;;;;;;;5.40;1.80;;;21.30;97.30;;;;;;5052091;28;20416;-69
2022/09/01 11:32:30;;;;;;;3.73;1.80;;;21.40;97.20;;;;;;5050812;28;20464;-69
2022/09/01 11:34:56;;;;;;;3.93;2.10;;;21.80;96.20;;;;;;5051950;28;20416;-69
2022/09/01 11:37:23;;;;;;;4.23;2.10;;;21.60;96.20;;;;;;5051983;28;20412;-69
2022/09/01 11:39:57;;;;;;;3.50;1.60;;;21.80;95.80;;;;;;5051875;28;20412;-68
2022/09/01 11:42:30;;;;;;;3.87;1.80;;;21.70;95.20;;;;;;5051456;28;20917;-68
2022/09/01 11:44:58;;;;;;;2.30;1.53;;;21.30;95.40;;;;;;5051823;28;20455;-68
2022/09/01 11:47:45;;;;;;;7.97;1.80;;;21.50;96.20;;;;;;5052120;28;20447;-68
2022/09/01 11:50:22;;;;;;;2.60;1.73;;;21.60;95.40;;;;;;5051711;28;20428;-68
2022/09/01 11:52:53;;;;;;;4.23;1.70;;;21.80;94.70;;;;;;5051347;28;20542;-69
2022/09/01 11:55:32;;;;;;;4.60;1.83;;;21.70;94.30;;;;;;5054659;28;20791;-69
2022/09/01 11:57:58;;;;;;;2.00;1.17;;;21.70;94.20;;;;;;5055671;28;20864;-68
2022/09/01 12:00:39;;;;;;;2.70;1.50;;;22.10;94.10;;;;;;5055612;28;20502;-69
2022/09/01 12:03:25;;;;;;;2.63;1.43;;;22.20;93.60;;;;;;5055667;28;20416;-68
2022/09/01 12:05:58;;;;;;;2.87;1.63;;;22.50;93.90;;;;;;5055700;28;20411;-68
2022/09/01 12:08:26;;;;;;;3.10;1.53;;;22.70;92.60;;;;;;5055772;28;20420;-68
2022/09/01 12:11:17;;;;;;;4.07;1.97;;;22.60;92.90;;;;;;5055276;28;20408;-68
2022/09/01 12:13:55;;;;;;;4.10;1.83;;;22.10;92.80;;;;;;5055497;28;20396;-68
2022/09/01 12:16:21;;;;;;;2.83;1.60;;;22.30;93.20;;;;;;5055099;28;20407;-68
2022/09/01 12:18:52;;;;;;;4.20;2.33;;;22.50;93.00;;;;;;5055569;28;20970;-69
2022/09/01 12:21:41;;;;;;;3.47;1.70;;;22.80;92.40;;;;;;5054805;28;20419;-68
2022/09/01 12:24:17;;;;;;;2.93;1.73;;;22.90;91.80;;;;;;5055240;28;20440;-68
2022/09/01 12:26:45;;;;;;;3.10;1.47;;;22.90;90.70;;;;;;5055228;28;20403;-68
2022/09/01 12:29:15;;;;;;;2.30;1.37;;;23.30;91.20;;;;;;5055198;28;20546;-67
2022/09/01 12:31:43;;;;;;;2.17;1.10;;;23.50;90.30;;;;;;5054597;28;20535;-68
2022/09/01 12:34:27;;;;;;;4.50;1.80;;;23.70;88.70;;;;;;5053923;28;20435;-68
2022/09/01 12:37:14;;;;;;;4.70;1.10;;;23.30;89.40;;;;;;5055159;28;20403;-68
2022/09/01 12:39:45;;;;;;;1.93;1.27;;;23.30;88.60;;;;;;5055275;28;20872;-68
2022/09/01 12:42:28;;;;;;;2.27;1.30;;;23.40;86.70;;;;;;5054824;28;20494;-69
2022/09/01 12:44:56;;;;;;;3.40;1.83;;;23.40;85.90;;;;;;5055259;28;20468;-69
2022/09/01 12:47:50;;;;;;;2.43;1.23;;;23.80;87.00;;;;;;5055041;28;20420;-68
2022/09/01 12:50:16;;;;;;;3.13;1.87;;;23.70;86.10;;;;;;5053607;28;20527;-68
2022/09/01 12:52:51;;;;;;;3.47;1.50;;;23.80;84.40;;;;;;5054177;28;20890;-69
2022/09/01 12:55:20;;;;;;;3.00;1.73;;;24.00;86.80;;;;;;5054930;28;20653;-68
2022/09/01 12:57:52;;;;;;;3.00;1.43;;;24.40;85.20;;;;;;5054570;28;20408;-68
2022/09/01 13:00:22;;;;;;;4.23;1.50;;;24.10;87.90;;;;;;5054600;28;20446;-68